Information Last Ob Photographs Meteogram Network Table Neighbors Monthly Summaries Observation History Wind Roses Custom Wind Roses Data Calendar Satellite Cloud Product Download Terminal Aerodome Forecast

Most Recent Observation

This application displays the last observation received by the IEM from this site. The time stamp is in America/New_York timezone.

Observation Local Time25 Feb 2024, 3:35 AM
Observation UTC Time2024-02-25T08:35:00Z
Air Temp [F]4.5
Maximum Air Temperature [F]7.5
Minimum Air Temperature [F]3.6
Dew Point [F]-2.2
Wind DirectionN (0 degrees)
Wind Speed [knots]0
Altimeter [inches]30.02
Raw Observation/ProductKEFK 250835Z AUTO 00000KT 10SM CLR M15/M19 A3002 RMK AO2 T11531190
Cloud Layer 1: CLR ( feet)

This data was provided by a JSON(P) webservice. You can find more JSON services.